createdAt,value
2022-11-22T00:00:56.910Z,2.59
2022-11-22T00:03:23.441Z,2.40
2022-11-22T00:05:49.943Z,2.31
2022-11-22T00:08:16.582Z,2.11
2022-11-22T00:10:43.132Z,2.09
2022-11-22T00:13:09.889Z,1.81
2022-11-22T00:15:36.499Z,2.23
2022-11-22T00:18:05.091Z,2.31
2022-11-22T00:20:31.702Z,2.45
2022-11-22T00:22:58.450Z,2.49
2022-11-22T00:25:25.179Z,2.13
2022-11-22T00:27:54.288Z,2.40
2022-11-22T00:30:25.663Z,2.66
2022-11-22T00:32:54.639Z,2.62
2022-11-22T00:35:25.982Z,2.16
2022-11-22T00:37:52.476Z,2.42
2022-11-22T00:40:24.275Z,2.52
2022-11-22T00:42:50.814Z,2.63
2022-11-22T00:45:21.853Z,2.64
2022-11-22T00:47:53.283Z,2.53
2022-11-22T00:50:19.873Z,2.58
2022-11-22T00:52:46.389Z,2.66
2022-11-22T00:55:12.904Z,2.66
2022-11-22T00:57:41.542Z,2.76
2022-11-22T01:00:11.543Z,2.72
2022-11-22T01:02:41.693Z,2.82
2022-11-22T01:05:13.474Z,2.85
2022-11-22T01:07:40.180Z,2.79
2022-11-22T01:10:07.046Z,2.72
2022-11-22T01:12:35.886Z,2.62
2022-11-22T01:15:05.669Z,2.73
2022-11-22T01:17:35.191Z,2.69
2022-11-22T01:20:01.931Z,2.53
2022-11-22T01:22:30.889Z,2.50
2022-11-22T01:24:59.682Z,2.43
2022-11-22T01:27:26.354Z,2.63
2022-11-22T01:29:55.951Z,2.87
2022-11-22T01:32:22.488Z,2.87
2022-11-22T01:34:53.590Z,2.92
2022-11-22T01:37:20.199Z,2.94
2022-11-22T01:39:49.233Z,2.91
2022-11-22T01:42:16.032Z,2.66
2022-11-22T01:44:43.735Z,2.81
2022-11-22T01:47:12.004Z,2.70
2022-11-22T01:49:54.032Z,2.55
2022-11-22T01:52:25.705Z,2.73
2022-11-22T01:55:03.151Z,2.51
2022-11-22T01:57:34.241Z,2.54
2022-11-22T02:00:13.855Z,2.51
2022-11-22T02:02:43.638Z,2.67
2022-11-22T02:05:18.031Z,2.53
2022-11-22T02:07:44.570Z,2.49
2022-11-22T02:10:11.685Z,2.67
2022-11-22T02:12:39.261Z,2.48
2022-11-22T02:15:07.294Z,2.58
2022-11-22T02:17:34.283Z,2.76
2022-11-22T02:20:00.912Z,2.72
2022-11-22T02:23:03.586Z,2.32
2022-11-22T02:25:37.784Z,2.46
2022-11-22T02:28:07.546Z,2.71
2022-11-22T02:30:36.577Z,2.75
2022-11-22T02:33:06.652Z,2.87
2022-11-22T02:35:33.848Z,2.96
2022-11-22T02:38:03.758Z,2.89
2022-11-22T02:40:38.179Z,3.01
2022-11-22T02:43:17.673Z,2.91
2022-11-22T02:45:44.483Z,3.00
2022-11-22T02:48:16.390Z,2.98
2022-11-22T02:50:45.783Z,3.14
2022-11-22T02:53:15.226Z,2.93
2022-11-22T02:55:41.873Z,3.08
2022-11-22T02:58:10.901Z,3.01
2022-11-22T03:00:39.305Z,3.16
2022-11-22T03:03:06.178Z,3.22
2022-11-22T03:05:35.415Z,3.29
2022-11-22T03:08:06.707Z,3.31
2022-11-22T03:10:35.497Z,3.21
2022-11-22T03:13:01.990Z,3.25
2022-11-22T03:15:30.708Z,2.89
2022-11-22T03:18:05.065Z,2.97
2022-11-22T03:20:33.172Z,3.05
2022-11-22T03:23:07.270Z,3.21
2022-11-22T03:25:39.704Z,3.17
2022-11-22T03:28:08.903Z,3.25
2022-11-22T03:30:42.147Z,3.05
2022-11-22T03:33:08.844Z,3.24
2022-11-22T03:35:37.454Z,3.33
2022-11-22T03:38:05.775Z,3.37
2022-11-22T03:40:32.442Z,3.13
2022-11-22T03:43:05.334Z,3.24
2022-11-22T03:45:34.082Z,3.42
2022-11-22T03:48:00.633Z,3.32
2022-11-22T03:50:27.227Z,3.51
2022-11-22T03:52:56.131Z,3.35
2022-11-22T03:55:22.633Z,3.20
2022-11-22T03:57:53.687Z,3.31
2022-11-22T04:00:20.271Z,3.39
2022-11-22T04:02:46.763Z,3.31
2022-11-22T04:05:13.422Z,3.28
2022-11-22T04:07:40.121Z,3.16
2022-11-22T04:10:07.430Z,3.10
2022-11-22T04:12:34.309Z,3.18
2022-11-22T04:15:06.757Z,2.97
2022-11-22T04:17:40.494Z,3.13
2022-11-22T04:20:39.567Z,3.16
2022-11-22T04:23:09.085Z,3.21
2022-11-22T04:25:42.811Z,3.14
2022-11-22T04:28:11.369Z,2.99
2022-11-22T04:30:56.933Z,2.89
2022-11-22T04:33:26.287Z,2.83
2022-11-22T04:35:53.268Z,2.74
2022-11-22T04:38:22.592Z,2.56
2022-11-22T04:40:49.338Z,2.49
2022-11-22T04:43:44.822Z,2.47
2022-11-22T04:46:12.598Z,2.31
2022-11-22T04:48:43.969Z,2.32
2022-11-22T04:51:33.232Z,2.25
2022-11-22T04:54:00.032Z,2.08
2022-11-22T04:56:28.768Z,2.07
2022-11-22T04:58:57.937Z,2.07
2022-11-22T05:01:24.556Z,2.02
2022-11-22T05:03:53.686Z,2.07
2022-11-22T05:06:20.234Z,1.86
2022-11-22T05:08:46.759Z,1.89
2022-11-22T05:11:18.359Z,1.97
2022-11-22T05:13:45.181Z,2.07
2022-11-22T05:16:17.307Z,2.12
2022-11-22T05:18:59.159Z,2.14
2022-11-22T05:21:30.970Z,1.89
2022-11-22T05:23:57.528Z,2.04
2022-11-22T05:26:35.661Z,1.71
2022-11-22T05:29:09.860Z,1.85
2022-11-22T05:31:37.920Z,1.85
2022-11-22T05:34:07.052Z,1.93
2022-11-22T05:36:36.302Z,1.66
2022-11-22T05:39:03.367Z,1.45
2022-11-22T05:41:32.200Z,1.70
2022-11-22T05:43:58.888Z,1.57
2022-11-22T05:46:31.986Z,1.46
2022-11-22T05:49:00.990Z,1.65
2022-11-22T05:51:34.595Z,1.33
2022-11-22T05:54:04.490Z,1.23
2022-11-22T05:56:31.080Z,1.34
2022-11-22T05:58:57.865Z,1.37
2022-11-22T06:01:26.575Z,1.20
2022-11-22T06:03:54.087Z,0.96
2022-11-22T06:06:21.526Z,1.31
2022-11-22T06:08:51.640Z,1.33
2022-11-22T06:11:25.608Z,1.28
2022-11-22T06:14:00.881Z,1.40
2022-11-22T06:16:27.620Z,1.49
2022-11-22T06:19:13.300Z,1.58
2022-11-22T06:21:39.857Z,1.69
2022-11-22T06:24:06.924Z,1.56
2022-11-22T06:26:39.087Z,1.82
2022-11-22T06:29:08.270Z,1.95
2022-11-22T06:31:37.295Z,2.14
2022-11-22T06:34:06.840Z,1.90
2022-11-22T06:36:34.649Z,1.86
2022-11-22T06:39:02.860Z,1.66
2022-11-22T06:41:33.958Z,1.78
2022-11-22T06:44:09.311Z,1.90
2022-11-22T06:46:39.406Z,1.85
2022-11-22T06:49:06.025Z,1.97
2022-11-22T06:51:33.367Z,1.77
2022-11-22T06:54:02.320Z,1.98
2022-11-22T06:56:33.713Z,2.00
2022-11-22T06:59:03.918Z,2.00
2022-11-22T07:01:36.404Z,2.00
2022-11-22T07:04:04.011Z,1.88
2022-11-22T07:06:32.863Z,1.84
2022-11-22T07:09:04.356Z,1.89
2022-11-22T07:11:32.354Z,1.78
2022-11-22T07:14:08.819Z,1.88
2022-11-22T07:16:37.633Z,1.86
2022-11-22T07:19:09.482Z,1.88
2022-11-22T07:21:37.486Z,1.92
2022-11-22T07:24:05.326Z,2.00
2022-11-22T07:26:34.428Z,1.95
2022-11-22T07:29:01.134Z,1.76
2022-11-22T07:31:30.985Z,1.64
2022-11-22T07:33:58.232Z,1.86
2022-11-22T07:36:25.341Z,1.84
2022-11-22T07:38:51.922Z,1.80
2022-11-22T07:41:22.284Z,1.85
2022-11-22T07:43:53.370Z,1.83
2022-11-22T07:46:31.217Z,1.92
2022-11-22T07:49:02.026Z,2.05
2022-11-22T07:51:31.168Z,2.00
2022-11-22T07:53:58.546Z,2.09
2022-11-22T07:56:27.851Z,2.13
2022-11-22T07:58:55.268Z,2.30
2022-11-22T08:01:21.895Z,2.14
2022-11-22T08:03:48.514Z,2.51
2022-11-22T08:06:19.940Z,2.37
2022-11-22T08:08:46.592Z,2.38
2022-11-22T08:11:15.592Z,2.52
2022-11-22T08:13:44.768Z,2.25
2022-11-22T08:16:19.269Z,2.37
2022-11-22T08:18:48.452Z,2.29
2022-11-22T08:21:18.817Z,2.39
2022-11-22T08:23:46.569Z,2.36
2022-11-22T08:26:14.829Z,2.26
2022-11-22T08:28:44.703Z,2.20
2022-11-22T08:31:15.194Z,2.51
2022-11-22T08:33:41.851Z,2.42
2022-11-22T08:36:11.142Z,2.51
2022-11-22T08:38:37.791Z,2.59
2022-11-22T08:41:06.530Z,2.61
2022-11-22T08:43:33.439Z,2.66
2022-11-22T08:46:02.879Z,2.55
2022-11-22T08:48:38.925Z,2.54
2022-11-22T08:51:07.908Z,2.67
2022-11-22T08:53:36.582Z,2.61
2022-11-22T08:56:05.103Z,2.65
2022-11-22T08:58:33.245Z,2.65
2022-11-22T09:01:12.407Z,2.77
2022-11-22T09:03:40.277Z,2.81
2022-11-22T09:09:22.113Z,2.94
2022-11-22T09:11:44.038Z,3.02
2022-11-22T09:14:10.550Z,3.14
2022-11-22T09:16:41.910Z,3.21
2022-11-22T09:19:08.506Z,3.04
2022-11-22T09:21:37.808Z,3.08
2022-11-22T09:24:04.400Z,3.19
2022-11-22T09:26:30.954Z,3.32
2022-11-22T09:28:59.592Z,3.38
2022-11-22T09:31:26.139Z,3.39
2022-11-22T09:33:52.970Z,3.36
2022-11-22T09:36:26.534Z,3.43
2022-11-22T09:38:53.488Z,3.67
2022-11-22T09:41:28.838Z,3.77
2022-11-22T09:44:33.003Z,3.77
2022-11-22T09:47:11.350Z,3.71
2022-11-22T09:49:52.903Z,3.82
2022-11-22T09:52:35.020Z,3.83
2022-11-22T09:55:17.766Z,3.85
2022-11-22T09:58:13.146Z,3.83
2022-11-22T10:00:46.510Z,4.04
2022-11-22T10:03:24.861Z,4.22
2022-11-22T10:05:54.430Z,4.39
2022-11-22T10:08:39.533Z,4.48
2022-11-22T10:11:30.972Z,4.62
2022-11-22T10:14:15.736Z,4.47
2022-11-22T10:16:52.868Z,4.58
2022-11-22T10:20:06.405Z,4.49
2022-11-22T10:22:35.114Z,4.69
2022-11-22T10:25:29.983Z,4.71
2022-11-22T10:28:07.906Z,4.80
2022-11-22T10:30:41.108Z,4.91
2022-11-22T10:33:18.359Z,4.82
2022-11-22T10:36:08.012Z,4.90
2022-11-22T10:38:59.524Z,4.81
2022-11-22T10:41:50.567Z,4.72
2022-11-22T10:44:20.048Z,4.68
2022-11-22T10:47:16.653Z,4.68
2022-11-22T10:50:24.725Z,4.71
2022-11-22T10:53:10.085Z,4.55
2022-11-22T10:56:18.554Z,4.58
2022-11-22T10:59:28.412Z,4.60
2022-11-22T11:02:19.817Z,4.72
2022-11-22T11:04:47.692Z,4.72
2022-11-22T11:07:20.979Z,4.63
2022-11-22T11:13:14.672Z,4.84
2022-11-22T11:15:55.556Z,4.89
2022-11-22T11:18:32.748Z,4.92
2022-11-22T11:21:02.111Z,5.02
2022-11-22T11:23:31.052Z,5.06
2022-11-22T11:26:15.052Z,5.27
2022-11-22T11:28:44.043Z,5.31
2022-11-22T11:31:13.922Z,5.27
2022-11-22T11:33:41.721Z,5.32
2022-11-22T11:36:16.379Z,5.41
2022-11-22T11:38:45.127Z,5.46
2022-11-22T11:41:32.819Z,5.28
2022-11-22T11:44:06.762Z,5.37
2022-11-22T11:46:39.367Z,5.44
2022-11-22T11:49:23.345Z,5.46
2022-11-22T11:51:55.643Z,5.57
2022-11-22T11:54:48.343Z,5.66
2022-11-22T11:57:24.031Z,5.56
2022-11-22T11:59:52.346Z,5.45
2022-11-22T12:02:29.836Z,5.43
2022-11-22T12:04:57.988Z,5.38
2022-11-22T12:07:38.342Z,5.28
2022-11-22T12:10:43.174Z,5.30
2022-11-22T12:13:16.419Z,5.32
2022-11-22T12:15:52.830Z,5.25
2022-11-22T12:18:37.359Z,5.33
2022-11-22T12:21:13.862Z,5.26
2022-11-22T12:23:47.937Z,5.31
2022-11-22T12:26:17.201Z,5.27
2022-11-22T12:28:44.247Z,5.36
2022-11-22T12:31:39.583Z,5.41
2022-11-22T12:34:17.278Z,5.42
2022-11-22T12:36:55.689Z,5.26
2022-11-22T12:39:28.110Z,5.26
2022-11-22T12:42:04.371Z,5.27
2022-11-22T12:44:39.040Z,5.22
2022-11-22T12:47:16.467Z,5.19
2022-11-22T12:49:47.874Z,5.14
2022-11-22T12:52:25.974Z,5.15
2022-11-22T12:55:14.385Z,5.07
2022-11-22T12:57:43.017Z,4.91
2022-11-22T13:00:24.203Z,4.91
2022-11-22T13:03:11.161Z,4.87
2022-11-22T13:05:47.056Z,4.85
2022-11-22T13:08:18.583Z,4.85
2022-11-22T13:10:45.054Z,4.91
2022-11-22T13:13:21.579Z,4.91
2022-11-22T13:15:51.371Z,4.86
2022-11-22T13:18:18.081Z,4.96
2022-11-22T13:20:59.486Z,4.87
2022-11-22T13:23:44.357Z,4.86
2022-11-22T13:26:19.518Z,4.81
2022-11-22T13:28:50.294Z,4.66
2022-11-22T13:31:19.573Z,4.60
2022-11-22T13:33:54.472Z,4.58
2022-11-22T13:36:29.389Z,4.57
2022-11-22T13:39:07.910Z,4.46
2022-11-22T13:41:34.360Z,4.41
2022-11-22T13:44:22.673Z,4.49
2022-11-22T13:46:55.204Z,4.41
2022-11-22T13:49:51.467Z,4.45
2022-11-22T13:52:18.016Z,4.33
2022-11-22T13:54:47.789Z,4.40
2022-11-22T13:57:20.429Z,4.62
2022-11-22T14:00:08.053Z,4.58
2022-11-22T14:02:40.306Z,4.33
2022-11-22T14:05:39.912Z,4.34
2022-11-22T14:08:28.491Z,4.21
2022-11-22T14:10:54.939Z,4.10
2022-11-22T14:13:48.291Z,4.27
2022-11-22T14:16:33.025Z,4.09
2022-11-22T14:19:18.623Z,4.09
2022-11-22T14:21:51.658Z,4.10
2022-11-22T14:24:49.415Z,4.10
2022-11-22T14:27:26.364Z,4.17
2022-11-22T14:30:11.606Z,4.16
2022-11-22T14:32:46.987Z,4.05
2022-11-22T14:35:18.842Z,3.99
2022-11-22T14:38:01.356Z,4.03
2022-11-22T14:40:39.181Z,3.97
2022-11-22T14:43:25.229Z,4.01
2022-11-22T14:46:30.466Z,3.95
2022-11-22T14:49:12.086Z,3.93
2022-11-22T14:51:40.032Z,3.88
2022-11-22T14:54:21.103Z,3.87
2022-11-22T14:56:48.502Z,3.93
2022-11-22T14:59:53.148Z,3.84
2022-11-22T15:02:50.542Z,4.24
2022-11-22T15:09:13.964Z,3.97
2022-11-22T15:09:23.702Z,4.05
2022-11-22T15:11:42.621Z,4.01
2022-11-22T15:14:27.882Z,3.90
2022-11-22T15:57:27.386Z,3.76
2022-11-22T15:59:55.036Z,3.88
2022-11-22T16:02:22.467Z,3.96
2022-11-22T16:06:06.252Z,3.86
2022-11-22T16:07:48.451Z,3.83
2022-11-22T16:10:24.996Z,3.79
2022-11-22T16:12:52.745Z,3.67
2022-11-22T16:15:42.265Z,3.81
2022-11-22T16:18:20.719Z,3.67
2022-11-22T16:21:07.213Z,3.70
2022-11-22T16:23:35.341Z,3.81
2022-11-22T16:26:29.399Z,3.75
2022-11-22T16:29:18.128Z,3.71
2022-11-22T16:31:47.194Z,3.74
2022-11-22T16:34:14.671Z,3.92
2022-11-22T16:36:41.336Z,3.96
2022-11-22T16:39:07.817Z,3.91
2022-11-22T16:41:37.491Z,3.91
2022-11-22T16:44:16.409Z,3.88
2022-11-22T16:46:43.140Z,3.83
2022-11-22T16:49:22.487Z,3.83
2022-11-22T16:51:54.800Z,3.79
2022-11-22T16:54:23.811Z,3.82
2022-11-22T16:56:50.447Z,3.90
2022-11-22T16:59:16.940Z,4.06
2022-11-22T17:01:47.056Z,3.93
2022-11-22T17:04:22.378Z,3.82
2022-11-22T17:06:51.224Z,3.86
2022-11-22T17:09:18.184Z,3.90
2022-11-22T17:11:48.383Z,3.95
2022-11-22T17:14:16.527Z,4.01
2022-11-22T17:16:43.437Z,3.99
2022-11-22T17:19:30.365Z,4.07
2022-11-22T17:21:56.812Z,4.06
2022-11-22T17:24:23.919Z,4.03
2022-11-22T17:26:52.587Z,4.01
2022-11-22T17:29:43.311Z,4.05
2022-11-22T17:32:10.291Z,4.01
2022-11-22T17:34:36.779Z,4.15
2022-11-22T17:37:06.023Z,4.17
2022-11-22T17:39:32.512Z,4.09
2022-11-22T17:42:01.758Z,4.19
2022-11-22T17:44:28.238Z,4.16
2022-11-22T17:46:55.137Z,4.16
2022-11-22T17:49:21.767Z,4.15
2022-11-22T17:51:48.327Z,4.09
2022-11-22T17:54:15.752Z,4.12
2022-11-22T17:56:42.315Z,4.05
2022-11-22T17:59:08.851Z,3.93
2022-11-22T18:01:37.673Z,4.05
2022-11-22T18:04:06.714Z,4.03
2022-11-22T18:06:38.120Z,4.02
2022-11-22T18:09:06.906Z,3.97
2022-11-22T18:11:33.423Z,3.93
2022-11-22T18:13:59.948Z,4.01
2022-11-22T18:16:30.109Z,3.95
2022-11-22T18:18:58.270Z,3.79
2022-11-22T18:21:31.977Z,3.93
2022-11-22T18:24:03.878Z,3.82
2022-11-22T18:26:41.073Z,3.94
2022-11-22T18:32:03.589Z,3.92
2022-11-22T18:34:32.936Z,3.85
2022-11-22T18:39:51.431Z,3.90
2022-11-22T18:42:22.517Z,3.81
2022-11-22T18:44:51.723Z,3.93
2022-11-22T18:47:18.239Z,3.73
2022-11-22T18:49:49.704Z,3.72
2022-11-22T18:52:17.942Z,3.88
2022-11-22T18:54:47.333Z,3.82
2022-11-22T18:57:14.012Z,3.65
2022-11-22T18:59:40.561Z,3.73
2022-11-22T19:02:09.596Z,3.62
2022-11-22T19:04:36.131Z,3.52
2022-11-22T19:07:02.854Z,3.55
2022-11-22T19:09:31.760Z,3.46
2022-11-22T19:12:00.692Z,3.52
2022-11-22T19:14:30.429Z,3.53
2022-11-22T19:16:59.433Z,3.49
2022-11-22T19:19:26.099Z,3.58
2022-11-22T19:21:52.742Z,3.78
2022-11-22T19:24:19.218Z,3.89
2022-11-22T19:26:45.894Z,3.74
2022-11-22T19:29:14.983Z,3.76
2022-11-22T19:31:43.844Z,3.81
2022-11-22T19:34:13.455Z,3.86
2022-11-22T19:36:40.727Z,3.63
2022-11-22T19:39:11.410Z,3.54
2022-11-22T19:41:40.098Z,3.60
2022-11-22T19:44:06.674Z,3.65
2022-11-22T19:46:36.304Z,3.33
2022-11-22T19:49:02.813Z,3.27
2022-11-22T19:51:31.035Z,3.19
2022-11-22T19:54:00.009Z,3.17
2022-11-22T19:56:31.064Z,3.26
2022-11-22T19:58:59.734Z,3.30
2022-11-22T20:01:27.820Z,3.14
2022-11-22T20:04:00.443Z,3.16
2022-11-22T20:06:29.990Z,3.14
2022-11-22T20:09:11.333Z,3.20
2022-11-22T20:11:39.746Z,3.16
2022-11-22T20:14:06.868Z,3.07
2022-11-22T20:16:33.919Z,3.07
2022-11-22T20:19:05.274Z,3.21
2022-11-22T20:21:33.182Z,3.12
2022-11-22T20:24:03.090Z,3.02
2022-11-22T20:26:35.130Z,3.07
2022-11-22T20:29:07.429Z,3.00
2022-11-22T20:31:38.497Z,2.96
2022-11-22T20:34:05.803Z,2.99
2022-11-22T20:36:35.006Z,3.17
2022-11-22T20:39:10.074Z,3.11
2022-11-22T20:41:39.272Z,3.02
2022-11-22T20:44:11.751Z,3.21
2022-11-22T20:46:38.402Z,3.16
2022-11-22T20:49:07.568Z,3.15
2022-11-22T20:51:39.781Z,3.22
2022-11-22T20:54:09.796Z,3.23
2022-11-22T20:56:37.284Z,3.28
2022-11-22T20:59:04.642Z,3.24
2022-11-22T21:01:34.042Z,3.31
2022-11-22T21:04:00.842Z,3.30
2022-11-22T21:06:32.705Z,3.49
2022-11-22T21:09:01.566Z,3.40
2022-11-22T21:11:32.059Z,3.27
2022-11-22T21:13:58.805Z,3.30
2022-11-22T21:16:29.854Z,3.41
2022-11-22T21:19:05.809Z,3.37
2022-11-22T21:21:35.808Z,3.42
2022-11-22T21:24:06.375Z,3.52
2022-11-22T21:26:33.909Z,3.59
2022-11-22T21:29:03.344Z,3.62
2022-11-22T21:31:32.237Z,3.40
2022-11-22T21:34:03.661Z,3.26
2022-11-22T21:36:30.749Z,3.39
2022-11-22T21:38:57.346Z,3.61
2022-11-22T21:41:44.129Z,3.68
2022-11-22T21:44:15.387Z,3.66
2022-11-22T21:46:44.327Z,3.77
2022-11-22T21:49:10.934Z,3.56
2022-11-22T21:51:43.983Z,3.56
2022-11-22T21:54:10.757Z,3.65
2022-11-22T21:56:37.352Z,3.62
2022-11-22T21:59:06.111Z,3.57
2022-11-22T22:01:35.221Z,3.45
2022-11-22T22:04:04.655Z,3.67
2022-11-22T22:06:33.450Z,3.70
2022-11-22T22:09:02.942Z,3.68
2022-11-22T22:11:31.958Z,3.45
2022-11-22T22:14:00.836Z,3.43
2022-11-22T22:16:27.848Z,3.55
2022-11-22T22:18:54.616Z,3.57
2022-11-22T22:21:21.572Z,3.44
2022-11-22T22:23:48.276Z,3.44
2022-11-22T22:26:17.431Z,3.54
2022-11-22T22:28:46.466Z,3.47
2022-11-22T22:31:24.526Z,3.60
2022-11-22T22:33:54.369Z,3.56
2022-11-22T22:36:22.439Z,3.44
2022-11-22T22:38:49.747Z,3.49
2022-11-22T22:41:17.060Z,3.44
2022-11-22T22:43:46.766Z,3.48
2022-11-22T22:46:21.774Z,3.35
2022-11-22T22:48:49.799Z,3.38
2022-11-22T22:51:27.490Z,3.18
2022-11-22T22:54:02.252Z,3.17
2022-11-22T22:56:33.163Z,3.30
2022-11-22T22:59:02.401Z,3.19
2022-11-22T23:01:30.043Z,3.31
2022-11-22T23:04:02.005Z,3.10
2022-11-22T23:06:31.446Z,3.20
2022-11-22T23:08:58.870Z,3.13
2022-11-22T23:11:46.604Z,3.17
2022-11-22T23:14:16.721Z,3.20
2022-11-22T23:16:43.345Z,3.05
2022-11-22T23:19:12.844Z,3.11
2022-11-22T23:21:40.303Z,3.11
2022-11-22T23:24:10.097Z,3.16
2022-11-22T23:26:39.141Z,3.09
2022-11-22T23:29:10.712Z,3.06
2022-11-22T23:31:40.623Z,3.14
2022-11-22T23:34:11.121Z,2.97
2022-11-22T23:36:41.133Z,3.14
2022-11-22T23:39:08.961Z,3.14
2022-11-22T23:41:38.166Z,2.97
2022-11-22T23:44:10.073Z,3.05
2022-11-22T23:46:39.312Z,3.11
2022-11-22T23:49:06.461Z,2.95
2022-11-22T23:51:35.027Z,3.01
2022-11-22T23:54:04.425Z,3.01
2022-11-22T23:56:34.861Z,3.00
2022-11-22T23:59:04.993Z,2.95
